sensor_id;sensor_type;location;lat;lon;timestamp;pressure;altitude;pressure_sealevel;temperature;humidity
46690;BME280;32423;45.398;10.874;2023-05-19T00:02:41;101017.84;;;17.48;56.94
46690;BME280;32423;45.398;10.874;2023-05-19T00:05:33;101021.78;;;17.47;56.89
46690;BME280;32423;45.398;10.874;2023-05-19T00:08:22;101022.56;;;17.32;57.00
46690;BME280;32423;45.398;10.874;2023-05-19T00:11:18;101019.09;;;17.35;56.93
46690;BME280;32423;45.398;10.874;2023-05-19T00:14:05;101027.06;;;17.24;56.66
46690;BME280;32423;45.398;10.874;2023-05-19T00:16:52;101022.97;;;17.34;56.17
46690;BME280;32423;45.398;10.874;2023-05-19T00:19:44;101021.09;;;17.22;55.29
46690;BME280;32423;45.398;10.874;2023-05-19T00:22:36;101001.06;;;17.37;55.76
46690;BME280;32423;45.398;10.874;2023-05-19T00:25:28;101005.16;;;17.43;54.21
46690;BME280;32423;45.398;10.874;2023-05-19T00:28:18;100995.50;;;17.34;54.67
46690;BME280;32423;45.398;10.874;2023-05-19T00:31:10;100999.91;;;17.23;54.19
46690;BME280;32423;45.398;10.874;2023-05-19T00:33:59;101005.31;;;17.19;55.15
46690;BME280;32423;45.398;10.874;2023-05-19T00:36:49;101002.84;;;17.14;54.17
46690;BME280;32423;45.398;10.874;2023-05-19T00:39:41;101005.66;;;17.18;54.91
46690;BME280;32423;45.398;10.874;2023-05-19T00:42:33;101003.44;;;17.07;55.23
46690;BME280;32423;45.398;10.874;2023-05-19T00:45:25;100998.31;;;17.06;55.13
46690;BME280;32423;45.398;10.874;2023-05-19T00:48:17;101008.84;;;17.04;56.36
46690;BME280;32423;45.398;10.874;2023-05-19T00:51:09;101004.66;;;16.94;56.23
46690;BME280;32423;45.398;10.874;2023-05-19T00:54:02;101006.94;;;16.92;56.20
46690;BME280;32423;45.398;10.874;2023-05-19T00:56:54;100995.94;;;16.92;56.17
46690;BME280;32423;45.398;10.874;2023-05-19T00:59:42;101000.66;;;16.92;56.04
46690;BME280;32423;45.398;10.874;2023-05-19T01:02:32;101004.44;;;16.87;56.43
46690;BME280;32423;45.398;10.874;2023-05-19T01:05:23;101001.94;;;16.82;56.24
46690;BME280;32423;45.398;10.874;2023-05-19T01:08:16;101004.94;;;16.77;56.08
46690;BME280;32423;45.398;10.874;2023-05-19T01:11:07;101011.13;;;16.86;56.01
46690;BME280;32423;45.398;10.874;2023-05-19T01:13:54;101011.00;;;16.83;56.25
46690;BME280;32423;45.398;10.874;2023-05-19T01:16:46;101014.09;;;16.81;56.07
46690;BME280;32423;45.398;10.874;2023-05-19T01:22:49;100996.66;;;16.89;56.09
46690;BME280;32423;45.398;10.874;2023-05-19T01:31:40;100994.50;;;17.10;55.00
46690;BME280;32423;45.398;10.874;2023-05-19T01:34:30;100985.63;;;17.01;55.31
46690;BME280;32423;45.398;10.874;2023-05-19T01:37:23;100996.66;;;16.89;55.48
46690;BME280;32423;45.398;10.874;2023-05-19T01:40:16;100990.72;;;16.87;55.75
46690;BME280;32423;45.398;10.874;2023-05-19T01:43:09;100986.13;;;17.07;55.18
46690;BME280;32423;45.398;10.874;2023-05-19T01:46:03;100982.53;;;17.19;55.29
46690;BME280;32423;45.398;10.874;2023-05-19T01:48:56;100982.88;;;17.33;54.79
46690;BME280;32423;45.398;10.874;2023-05-19T01:51:46;100983.28;;;17.47;53.98
46690;BME280;32423;45.398;10.874;2023-05-19T01:54:37;100985.03;;;17.39;53.07
46690;BME280;32423;45.398;10.874;2023-05-19T02:00:29;100981.06;;;17.37;53.34
46690;BME280;32423;45.398;10.874;2023-05-19T02:03:25;100983.28;;;17.47;54.08
46690;BME280;32423;45.398;10.874;2023-05-19T02:09:36;100982.84;;;17.61;55.17
46690;BME280;32423;45.398;10.874;2023-05-19T02:12:36;100986.75;;;17.60;51.42
46690;BME280;32423;45.398;10.874;2023-05-19T02:15:29;100987.34;;;17.53;53.62
46690;BME280;32423;45.398;10.874;2023-05-19T02:18:22;100979.63;;;17.59;54.39
46690;BME280;32423;45.398;10.874;2023-05-19T02:21:10;100988.94;;;17.54;52.69
46690;BME280;32423;45.398;10.874;2023-05-19T02:24:01;100981.13;;;17.56;51.35
46690;BME280;32423;45.398;10.874;2023-05-19T02:26:51;100979.34;;;17.48;52.05
46690;BME280;32423;45.398;10.874;2023-05-19T02:29:40;100977.94;;;17.54;51.58
46690;BME280;32423;45.398;10.874;2023-05-19T02:32:30;100976.53;;;17.60;52.60
46690;BME280;32423;45.398;10.874;2023-05-19T02:35:23;100986.91;;;17.51;53.22
46690;BME280;32423;45.398;10.874;2023-05-19T02:38:15;100988.13;;;17.38;52.66
46690;BME280;32423;45.398;10.874;2023-05-19T02:41:05;100982.88;;;17.33;53.29
46690;BME280;32423;45.398;10.874;2023-05-19T02:43:57;100992.13;;;17.25;52.46
46690;BME280;32423;45.398;10.874;2023-05-19T02:46:49;100990.53;;;17.24;52.05
46690;BME280;32423;45.398;10.874;2023-05-19T02:49:41;100983.25;;;17.16;52.87
46690;BME280;32423;45.398;10.874;2023-05-19T02:52:31;100984.41;;;17.15;52.87
46690;BME280;32423;45.398;10.874;2023-05-19T02:55:23;100984.75;;;17.29;53.26
46690;BME280;32423;45.398;10.874;2023-05-19T02:58:15;100982.38;;;17.12;52.75
46690;BME280;32423;45.398;10.874;2023-05-19T03:01:07;100980.41;;;17.28;55.25
46690;BME280;32423;45.398;10.874;2023-05-19T03:03:59;100979.25;;;17.13;53.17
46690;BME280;32423;45.398;10.874;2023-05-19T03:06:51;100973.28;;;16.95;53.63
46690;BME280;32423;45.398;10.874;2023-05-19T03:09:42;100980.44;;;16.84;55.20
46690;BME280;32423;45.398;10.874;2023-05-19T03:12:31;100976.69;;;16.77;54.28
46690;BME280;32423;45.398;10.874;2023-05-19T03:15:21;100975.13;;;16.76;55.01
46690;BME280;32423;45.398;10.874;2023-05-19T03:18:06;100974.31;;;16.75;54.47
46690;BME280;32423;45.398;10.874;2023-05-19T03:20:56;100969.00;;;16.82;54.61
46690;BME280;32423;45.398;10.874;2023-05-19T03:23:45;100964.13;;;16.76;54.78
46690;BME280;32423;45.398;10.874;2023-05-19T03:26:33;100970.13;;;16.81;54.88
46690;BME280;32423;45.398;10.874;2023-05-19T03:29:25;100972.06;;;16.65;55.19
46690;BME280;32423;45.398;10.874;2023-05-19T03:32:17;100976.63;;;16.61;55.42
46690;BME280;32423;45.398;10.874;2023-05-19T03:35:06;100980.66;;;16.51;55.77
46690;BME280;32423;45.398;10.874;2023-05-19T03:37:56;100984.25;;;16.40;56.21
46690;BME280;32423;45.398;10.874;2023-05-19T03:40:45;100979.34;;;16.33;57.01
46690;BME280;32423;45.398;10.874;2023-05-19T03:43:35;100990.66;;;16.32;56.97
46690;BME280;32423;45.398;10.874;2023-05-19T03:46:27;100990.22;;;16.30;56.97
46690;BME280;32423;45.398;10.874;2023-05-19T03:49:37;100986.78;;;16.33;57.43
46690;BME280;32423;45.398;10.874;2023-05-19T03:52:27;100973.63;;;16.26;57.51
46690;BME280;32423;45.398;10.874;2023-05-19T03:55:28;100980.88;;;16.18;57.67
46690;BME280;32423;45.398;10.874;2023-05-19T03:58:15;100974.91;;;16.16;57.79
46690;BME280;32423;45.398;10.874;2023-05-19T04:01:00;100982.00;;;16.17;58.42
46690;BME280;32423;45.398;10.874;2023-05-19T04:03:52;100979.50;;;16.12;57.89
46690;BME280;32423;45.398;10.874;2023-05-19T04:06:44;100985.47;;;16.14;58.20
46690;BME280;32423;45.398;10.874;2023-05-19T04:09:34;100981.00;;;16.10;58.25
46690;BME280;32423;45.398;10.874;2023-05-19T04:12:26;100984.41;;;16.19;58.42
46690;BME280;32423;45.398;10.874;2023-05-19T04:15:15;100987.72;;;16.12;58.56
46690;BME280;32423;45.398;10.874;2023-05-19T04:18:05;100985.88;;;16.16;58.81
46690;BME280;32423;45.398;10.874;2023-05-19T04:20:50;100986.78;;;16.20;58.49
46690;BME280;32423;45.398;10.874;2023-05-19T04:23:40;100990.47;;;16.12;59.17
46690;BME280;32423;45.398;10.874;2023-05-19T04:26:30;100995.25;;;16.15;58.71
46690;BME280;32423;45.398;10.874;2023-05-19T04:29:20;100990.13;;;16.14;58.87
46690;BME280;32423;45.398;10.874;2023-05-19T04:32:10;100997.34;;;16.18;59.21
46690;BME280;32423;45.398;10.874;2023-05-19T04:35:02;100999.59;;;16.16;59.31
46690;BME280;32423;45.398;10.874;2023-05-19T04:37:53;101000.97;;;16.10;59.78
46690;BME280;32423;45.398;10.874;2023-05-19T04:40:43;101004.06;;;16.21;59.75
46690;BME280;32423;45.398;10.874;2023-05-19T04:43:33;101000.28;;;16.25;60.08
46690;BME280;32423;45.398;10.874;2023-05-19T04:46:25;100998.56;;;16.21;59.60
46690;BME280;32423;45.398;10.874;2023-05-19T04:49:12;100999.59;;;16.16;59.50
46690;BME280;32423;45.398;10.874;2023-05-19T04:52:04;101000.16;;;16.22;59.50
46690;BME280;32423;45.398;10.874;2023-05-19T04:54:52;101001.69;;;16.19;59.16
46690;BME280;32423;45.398;10.874;2023-05-19T04:57:37;101006.31;;;16.43;59.37
46690;BME280;32423;45.398;10.874;2023-05-19T05:00:27;101006.16;;;16.52;59.12
46690;BME280;32423;45.398;10.874;2023-05-19T05:03:22;101008.47;;;16.50;58.17
46690;BME280;32423;45.398;10.874;2023-05-19T05:06:14;101006.41;;;16.59;58.19
46690;BME280;32423;45.398;10.874;2023-05-19T05:09:06;101016.81;;;16.53;58.40
46690;BME280;32423;45.398;10.874;2023-05-19T05:11:58;101019.44;;;16.50;58.77
46690;BME280;32423;45.398;10.874;2023-05-19T05:14:50;101013.03;;;16.46;58.67
46690;BME280;32423;45.398;10.874;2023-05-19T05:17:42;101024.13;;;16.61;59.55
46690;BME280;32423;45.398;10.874;2023-05-19T05:20:35;101008.22;;;16.55;58.91
46690;BME280;32423;45.398;10.874;2023-05-19T05:23:22;101012.34;;;16.49;58.81
46690;BME280;32423;45.398;10.874;2023-05-19T05:26:18;101009.38;;;16.42;58.99
46690;BME280;32423;45.398;10.874;2023-05-19T05:29:12;101011.34;;;16.41;59.22
46690;BME280;32423;45.398;10.874;2023-05-19T05:32:04;101010.91;;;16.39;58.40
46690;BME280;32423;45.398;10.874;2023-05-19T05:34:56;101011.66;;;16.52;58.41
46690;BME280;32423;45.398;10.874;2023-05-19T05:37:45;101014.06;;;16.41;59.09
46690;BME280;32423;45.398;10.874;2023-05-19T05:40:35;101007.91;;;16.44;59.09
46690;BME280;32423;45.398;10.874;2023-05-19T05:43:28;101003.91;;;16.42;58.96
46690;BME280;32423;45.398;10.874;2023-05-19T05:46:20;101016.38;;;16.39;58.47
46690;BME280;32423;45.398;10.874;2023-05-19T05:49:10;101008.81;;;16.48;58.93
46690;BME280;32423;45.398;10.874;2023-05-19T05:52:05;101011.41;;;16.57;59.08
46690;BME280;32423;45.398;10.874;2023-05-19T05:55:09;101010.97;;;16.55;58.90
46690;BME280;32423;45.398;10.874;2023-05-19T05:58:03;101016.69;;;16.62;58.74
46690;BME280;32423;45.398;10.874;2023-05-19T06:00:58;101014.31;;;16.60;58.54
46690;BME280;32423;45.398;10.874;2023-05-19T06:03:52;101014.25;;;16.73;57.67
46690;BME280;32423;45.398;10.874;2023-05-19T06:06:45;101021.56;;;16.81;57.43
46690;BME280;32423;45.398;10.874;2023-05-19T06:09:43;101020.53;;;16.73;57.93
46690;BME280;32423;45.398;10.874;2023-05-19T06:12:38;101022.38;;;16.69;57.67
46690;BME280;32423;45.398;10.874;2023-05-19T06:15:33;101020.38;;;16.82;57.68
46690;BME280;32423;45.398;10.874;2023-05-19T06:18:32;101022.09;;;16.86;56.93
46690;BME280;32423;45.398;10.874;2023-05-19T06:21:26;101021.22;;;16.98;57.08
46690;BME280;32423;45.398;10.874;2023-05-19T06:24:19;101024.88;;;17.02;56.43
46690;BME280;32423;45.398;10.874;2023-05-19T06:27:13;101028.06;;;17.04;56.19
46690;BME280;32423;45.398;10.874;2023-05-19T06:30:09;101032.25;;;17.14;56.32
46690;BME280;32423;45.398;10.874;2023-05-19T06:33:09;101030.78;;;17.16;56.02
46690;BME280;32423;45.398;10.874;2023-05-19T06:36:06;101031.38;;;17.09;56.40
46690;BME280;32423;45.398;10.874;2023-05-19T06:39:00;101034.22;;;17.13;56.12
46690;BME280;32423;45.398;10.874;2023-05-19T06:41:55;101041.22;;;17.10;56.35
46690;BME280;32423;45.398;10.874;2023-05-19T06:45:12;101036.81;;;17.22;56.18
46690;BME280;32423;45.398;10.874;2023-05-19T06:48:02;101037.97;;;17.21;56.05
46690;BME280;32423;45.398;10.874;2023-05-19T06:50:57;101049.06;;;16.96;57.04
46690;BME280;32423;45.398;10.874;2023-05-19T06:53:53;101044.25;;;16.93;57.01
46690;BME280;32423;45.398;10.874;2023-05-19T06:56:47;101048.03;;;17.01;57.13
46690;BME280;32423;45.398;10.874;2023-05-19T06:59:42;101054.41;;;17.05;56.63
46690;BME280;32423;45.398;10.874;2023-05-19T07:02:37;101050.84;;;17.04;56.90
46690;BME280;32423;45.398;10.874;2023-05-19T07:05:32;101046.72;;;17.10;55.52
46690;BME280;32423;45.398;10.874;2023-05-19T07:08:27;101047.81;;;17.22;55.67
46690;BME280;32423;45.398;10.874;2023-05-19T07:11:23;101055.78;;;17.27;54.86
46690;BME280;32423;45.398;10.874;2023-05-19T07:14:17;101053.06;;;17.27;54.86
46690;BME280;32423;45.398;10.874;2023-05-19T07:17:12;101048.78;;;17.29;54.44
46690;BME280;32423;45.398;10.874;2023-05-19T07:20:08;101047.72;;;17.34;53.68
46690;BME280;32423;45.398;10.874;2023-05-19T07:23:05;101048.81;;;17.45;53.32
46690;BME280;32423;45.398;10.874;2023-05-19T07:26:00;101045.63;;;17.59;53.78
46690;BME280;32423;45.398;10.874;2023-05-19T07:28:54;101047.41;;;17.51;53.21
46690;BME280;32423;45.398;10.874;2023-05-19T07:31:49;101050.41;;;17.46;53.70
46690;BME280;32423;45.398;10.874;2023-05-19T07:34:45;101046.00;;;17.57;52.62
46690;BME280;32423;45.398;10.874;2023-05-19T07:37:40;101043.66;;;17.43;53.38
46690;BME280;32423;45.398;10.874;2023-05-19T07:40:34;101046.53;;;17.47;54.00
46690;BME280;32423;45.398;10.874;2023-05-19T07:43:29;101058.81;;;17.53;53.01
46690;BME280;32423;45.398;10.874;2023-05-19T07:46:24;101056.06;;;17.53;53.60
46690;BME280;32423;45.398;10.874;2023-05-19T07:49:18;101048.06;;;17.60;54.20
46690;BME280;32423;45.398;10.874;2023-05-19T07:52:13;101053.56;;;17.60;53.05
46690;BME280;32423;45.398;10.874;2023-05-19T07:55:05;101052.84;;;17.63;52.53
46690;BME280;32423;45.398;10.874;2023-05-19T07:57:59;101051.75;;;17.52;53.37
46690;BME280;32423;45.398;10.874;2023-05-19T08:00:49;101045.44;;;17.51;53.34
46690;BME280;32423;45.398;10.874;2023-05-19T08:03:44;101048.28;;;17.55;53.09
46690;BME280;32423;45.398;10.874;2023-05-19T08:06:38;101049.69;;;17.49;52.93
46690;BME280;32423;45.398;10.874;2023-05-19T08:09:33;101051.28;;;17.50;52.22
46690;BME280;32423;45.398;10.874;2023-05-19T08:12:28;101055.66;;;17.51;52.40
46690;BME280;32423;45.398;10.874;2023-05-19T08:15:22;101045.59;;;17.43;52.48
46690;BME280;32423;45.398;10.874;2023-05-19T08:18:17;101051.38;;;17.53;52.63
46690;BME280;32423;45.398;10.874;2023-05-19T08:21:11;101048.28;;;17.55;52.32
46690;BME280;32423;45.398;10.874;2023-05-19T08:24:06;101054.50;;;17.68;53.34
46690;BME280;32423;45.398;10.874;2023-05-19T08:27:01;101057.53;;;17.63;53.75
46690;BME280;32423;45.398;10.874;2023-05-19T08:29:53;101054.69;;;17.59;53.34
46690;BME280;32423;45.398;10.874;2023-05-19T08:32:45;101060.81;;;17.68;53.74
46690;BME280;32423;45.398;10.874;2023-05-19T08:35:40;101054.44;;;17.64;52.76
46690;BME280;32423;45.398;10.874;2023-05-19T08:38:31;101058.19;;;17.87;52.65
46690;BME280;32423;45.398;10.874;2023-05-19T08:41:26;101058.06;;;18.00;52.38
46690;BME280;32423;45.398;10.874;2023-05-19T08:44:21;101056.44;;;18.14;53.23
46690;BME280;32423;45.398;10.874;2023-05-19T08:47:16;101065.06;;;18.13;52.35
46690;BME280;32423;45.398;10.874;2023-05-19T08:50:12;101055.75;;;18.17;54.38
46690;BME280;32423;45.398;10.874;2023-05-19T08:53:16;101054.69;;;18.06;52.56
46690;BME280;32423;45.398;10.874;2023-05-19T08:56:21;101047.91;;;18.19;52.91
46690;BME280;32423;45.398;10.874;2023-05-19T08:59:16;101052.06;;;18.29;52.59
46690;BME280;32423;45.398;10.874;2023-05-19T09:02:11;101067.19;;;18.04;52.07
46690;BME280;32423;45.398;10.874;2023-05-19T09:05:06;101064.81;;;18.02;52.61
46690;BME280;32423;45.398;10.874;2023-05-19T09:08:01;101067.03;;;17.97;51.85
46690;BME280;32423;45.398;10.874;2023-05-19T09:10:56;101072.81;;;17.91;52.46
46690;BME280;32423;45.398;10.874;2023-05-19T09:13:51;101068.28;;;17.83;53.19
46690;BME280;32423;45.398;10.874;2023-05-19T09:16:47;101080.41;;;17.98;52.79
46690;BME280;32423;45.398;10.874;2023-05-19T09:19:43;101062.41;;;18.01;53.42
46690;BME280;32423;45.398;10.874;2023-05-19T09:22:41;101061.81;;;17.91;52.56
46690;BME280;32423;45.398;10.874;2023-05-19T09:25:36;101068.19;;;17.80;52.59
46690;BME280;32423;45.398;10.874;2023-05-19T09:28:35;101064.03;;;17.86;52.46
46690;BME280;32423;45.398;10.874;2023-05-19T09:31:30;101070.41;;;17.90;52.55
46690;BME280;32423;45.398;10.874;2023-05-19T09:34:25;101063.69;;;17.72;51.99
46690;BME280;32423;45.398;10.874;2023-05-19T09:37:21;101071.22;;;17.75;52.19
46690;BME280;32423;45.398;10.874;2023-05-19T09:40:19;101075.38;;;17.69;52.18
46690;BME280;32423;45.398;10.874;2023-05-19T09:43:13;101075.47;;;17.72;52.32
46690;BME280;32423;45.398;10.874;2023-05-19T09:46:09;101070.34;;;17.86;52.70
46690;BME280;32423;45.398;10.874;2023-05-19T09:49:10;101069.53;;;18.02;52.60
46690;BME280;32423;45.398;10.874;2023-05-19T09:52:09;101077.84;;;18.05;51.92
46690;BME280;32423;45.398;10.874;2023-05-19T09:54:58;101067.03;;;17.97;52.64
46690;BME280;32423;45.398;10.874;2023-05-19T09:57:48;101067.19;;;18.04;52.94
46690;BME280;32423;45.398;10.874;2023-05-19T10:00:43;101077.38;;;18.19;52.53
46690;BME280;32423;45.398;10.874;2023-05-19T10:03:36;101071.06;;;18.34;52.52
46690;BME280;32423;45.398;10.874;2023-05-19T10:06:32;101073.63;;;18.43;52.53
46690;BME280;32423;45.398;10.874;2023-05-19T10:09:27;101075.66;;;18.46;52.37
46690;BME280;32423;45.398;10.874;2023-05-19T10:12:21;101069.56;;;18.36;53.15
46690;BME280;32423;45.398;10.874;2023-05-19T10:15:16;101071.06;;;18.34;51.87
46690;BME280;32423;45.398;10.874;2023-05-19T10:18:11;101067.66;;;18.41;52.61
46690;BME280;32423;45.398;10.874;2023-05-19T10:21:08;101062.66;;;18.27;52.34
46690;BME280;32423;45.398;10.874;2023-05-19T10:24:03;101065.19;;;18.35;53.20
46690;BME280;32423;45.398;10.874;2023-05-19T10:26:56;101065.41;;;18.27;52.89
46690;BME280;32423;45.398;10.874;2023-05-19T10:29:52;101066.00;;;18.36;53.73
46690;BME280;32423;45.398;10.874;2023-05-19T10:32:50;101067.34;;;18.26;53.72
46690;BME280;32423;45.398;10.874;2023-05-19T10:39:12;101063.06;;;18.29;53.50
46690;BME280;32423;45.398;10.874;2023-05-19T10:42:30;101069.50;;;18.17;53.90
46690;BME280;32423;45.398;10.874;2023-05-19T10:45:28;101060.59;;;18.24;53.94
46690;BME280;32423;45.398;10.874;2023-05-19T10:48:24;101054.19;;;18.35;55.15
46690;BME280;32423;45.398;10.874;2023-05-19T10:51:18;101061.75;;;18.38;54.21
46690;BME280;32423;45.398;10.874;2023-05-19T10:54:13;101056.88;;;18.16;53.52
46690;BME280;32423;45.398;10.874;2023-05-19T10:57:07;101056.56;;;18.02;54.34
46690;BME280;32423;45.398;10.874;2023-05-19T10:59:59;101049.72;;;17.96;55.26
46690;BME280;32423;45.398;10.874;2023-05-19T11:03:13;101051.34;;;17.97;56.31
46690;BME280;32423;45.398;10.874;2023-05-19T11:06:33;101045.19;;;17.88;56.01
46690;BME280;32423;45.398;10.874;2023-05-19T11:09:28;101044.41;;;17.87;55.73
46690;BME280;32423;45.398;10.874;2023-05-19T11:12:24;101051.69;;;17.95;56.37
46690;BME280;32423;45.398;10.874;2023-05-19T11:15:18;101052.91;;;17.98;57.67
46690;BME280;32423;45.398;10.874;2023-05-19T11:18:17;101055.16;;;17.92;58.38
46690;BME280;32423;45.398;10.874;2023-05-19T11:21:12;101048.41;;;17.90;58.82
46690;BME280;32423;45.398;10.874;2023-05-19T11:24:09;101051.75;;;17.83;58.23
46690;BME280;32423;45.398;10.874;2023-05-19T11:26:58;101054.78;;;17.94;59.41
46690;BME280;32423;45.398;10.874;2023-05-19T11:29:50;101050.44;;;17.93;58.49
46690;BME280;32423;45.398;10.874;2023-05-19T11:32:46;101051.75;;;17.83;58.86
46690;BME280;32423;45.398;10.874;2023-05-19T11:35:40;101046.97;;;17.80;58.63
46690;BME280;32423;45.398;10.874;2023-05-19T11:38:35;101047.88;;;17.69;57.95
46690;BME280;32423;45.398;10.874;2023-05-19T11:41:30;101039.88;;;17.79;59.08
46690;BME280;32423;45.398;10.874;2023-05-19T11:44:20;101046.97;;;17.80;59.02
46690;BME280;32423;45.398;10.874;2023-05-19T11:47:14;101029.88;;;17.87;59.15
46690;BME280;32423;45.398;10.874;2023-05-19T11:50:09;101028.00;;;17.75;59.15
46690;BME280;32423;45.398;10.874;2023-05-19T11:53:03;101038.72;;;17.65;59.82
46690;BME280;32423;45.398;10.874;2023-05-19T11:56:03;101033.31;;;17.68;60.49
46690;BME280;32423;45.398;10.874;2023-05-19T11:58:58;101035.91;;;17.61;60.61
46690;BME280;32423;45.398;10.874;2023-05-19T12:01:53;101027.81;;;17.68;61.42
46690;BME280;32423;45.398;10.874;2023-05-19T12:04:45;101023.22;;;17.72;61.75
46690;BME280;32423;45.398;10.874;2023-05-19T12:07:34;101029.16;;;17.74;61.83
46690;BME280;32423;45.398;10.874;2023-05-19T12:10:27;101025.25;;;17.75;62.03
46690;BME280;32423;45.398;10.874;2023-05-19T12:13:16;101024.78;;;17.73;61.42
46690;BME280;32423;45.398;10.874;2023-05-19T12:16:05;101029.88;;;17.71;62.40
46690;BME280;32423;45.398;10.874;2023-05-19T12:18:57;101032.97;;;17.70;61.89
46690;BME280;32423;45.398;10.874;2023-05-19T12:21:47;101028.63;;;17.69;61.09
46690;BME280;32423;45.398;10.874;2023-05-19T12:24:39;101026.41;;;17.74;60.32
46690;BME280;32423;45.398;10.874;2023-05-19T12:27:33;101022.03;;;17.73;60.15
46690;BME280;32423;45.398;10.874;2023-05-19T12:30:23;101025.50;;;17.70;59.27
46690;BME280;32423;45.398;10.874;2023-05-19T12:33:16;101022.94;;;17.77;59.64
46690;BME280;32423;45.398;10.874;2023-05-19T12:36:05;101025.78;;;17.81;59.70
46690;BME280;32423;45.398;10.874;2023-05-19T12:38:54;101019.66;;;17.87;59.38
46690;BME280;32423;45.398;10.874;2023-05-19T12:41:44;101027.47;;;17.85;58.66
46690;BME280;32423;45.398;10.874;2023-05-19T12:44:38;101027.00;;;17.83;58.76
46690;BME280;32423;45.398;10.874;2023-05-19T12:47:32;101020.81;;;17.86;58.22
46690;BME280;32423;45.398;10.874;2023-05-19T12:50:28;101023.56;;;17.86;59.42
46690;BME280;32423;45.398;10.874;2023-05-19T12:53:20;101029.94;;;17.90;59.37
46690;BME280;32423;45.398;10.874;2023-05-19T12:56:13;101027.81;;;17.84;61.20
46690;BME280;32423;45.398;10.874;2023-05-19T12:58:59;101023.66;;;17.74;63.39
46690;BME280;32423;45.398;10.874;2023-05-19T13:01:58;101017.16;;;17.51;65.11
46690;BME280;32423;45.398;10.874;2023-05-19T13:04:50;101026.75;;;17.57;65.68
46690;BME280;32423;45.398;10.874;2023-05-19T13:07:42;101019.44;;;17.49;65.97
46690;BME280;32423;45.398;10.874;2023-05-19T13:10:40;101019.09;;;17.35;68.39
46690;BME280;32423;45.398;10.874;2023-05-19T13:13:34;101023.19;;;17.41;70.06
46690;BME280;32423;45.398;10.874;2023-05-19T13:16:26;101025.38;;;17.35;71.31
46690;BME280;32423;45.398;10.874;2023-05-19T13:19:19;101022.97;;;17.34;71.52
46690;BME280;32423;45.398;10.874;2023-05-19T13:22:11;101021.63;;;17.28;71.80
46690;BME280;32423;45.398;10.874;2023-05-19T13:25:03;101016.69;;;17.33;72.46
46690;BME280;32423;45.398;10.874;2023-05-19T13:27:55;101018.88;;;17.28;72.34
46690;BME280;32423;45.398;10.874;2023-05-19T13:30:47;101016.06;;;17.40;72.49
46690;BME280;32423;45.398;10.874;2023-05-19T13:33:42;101017.47;;;17.34;72.30
46690;BME280;32423;45.398;10.874;2023-05-19T13:36:34;101015.00;;;17.29;72.14
46690;BME280;32423;45.398;10.874;2023-05-19T13:39:24;101022.56;;;17.32;73.07
46690;BME280;32423;45.398;10.874;2023-05-19T13:42:14;101020.22;;;17.34;73.24
46690;BME280;32423;45.398;10.874;2023-05-19T13:45:05;101021.56;;;17.40;73.95
46690;BME280;32423;45.398;10.874;2023-05-19T13:47:57;101023.69;;;17.31;74.63
46690;BME280;32423;45.398;10.874;2023-05-19T13:50:47;101020.16;;;17.30;73.60
46690;BME280;32423;45.398;10.874;2023-05-19T13:53:39;101025.38;;;17.35;74.55
46690;BME280;32423;45.398;10.874;2023-05-19T13:56:28;101015.34;;;17.12;74.82
46690;BME280;32423;45.398;10.874;2023-05-19T13:59:20;101027.75;;;17.21;75.55
46690;BME280;32423;45.398;10.874;2023-05-19T14:02:12;101030.69;;;17.28;75.87
46690;BME280;32423;45.398;10.874;2023-05-19T14:04:59;101022.25;;;17.05;76.84
46690;BME280;32423;45.398;10.874;2023-05-19T14:07:51;101029.81;;;16.68;79.45
46690;BME280;32423;45.398;10.874;2023-05-19T14:10:43;101031.75;;;16.56;81.74
46690;BME280;32423;45.398;10.874;2023-05-19T14:13:36;101022.88;;;16.59;81.97
46690;BME280;32423;45.398;10.874;2023-05-19T14:16:28;101023.53;;;16.68;81.82
46690;BME280;32423;45.398;10.874;2023-05-19T14:19:20;101028.78;;;16.73;81.36
46690;BME280;32423;45.398;10.874;2023-05-19T14:22:09;101028.13;;;16.64;81.81
46690;BME280;32423;45.398;10.874;2023-05-19T14:25:01;101035.91;;;16.62;82.64
46690;BME280;32423;45.398;10.874;2023-05-19T14:27:53;101026.91;;;16.37;83.58
46690;BME280;32423;45.398;10.874;2023-05-19T14:30:45;101025.63;;;16.47;84.20
46690;BME280;32423;45.398;10.874;2023-05-19T14:33:37;101028.13;;;16.52;83.36
46690;BME280;32423;45.398;10.874;2023-05-19T14:36:29;101025.19;;;16.45;80.94
46690;BME280;32423;45.398;10.874;2023-05-19T14:39:19;101024.97;;;16.38;80.16
46690;BME280;32423;45.398;10.874;2023-05-19T14:42:11;101027.56;;;16.46;80.95
46690;BME280;32423;45.398;10.874;2023-05-19T14:45:03;101019.56;;;16.41;80.40
46690;BME280;32423;45.398;10.874;2023-05-19T14:47:52;101019.25;;;16.31;80.92
46690;BME280;32423;45.398;10.874;2023-05-19T14:50:45;101028.59;;;16.54;80.33
46690;BME280;32423;45.398;10.874;2023-05-19T14:53:36;101028.47;;;16.62;79.35
46690;BME280;32423;45.398;10.874;2023-05-19T14:56:29;101034.19;;;16.70;79.44
46690;BME280;32423;45.398;10.874;2023-05-19T14:59:18;101032.88;;;16.79;79.73
46690;BME280;32423;45.398;10.874;2023-05-19T15:02:08;101035.16;;;16.77;78.64
46690;BME280;32423;45.398;10.874;2023-05-19T15:04:58;101031.31;;;16.66;78.24
46690;BME280;32423;45.398;10.874;2023-05-19T15:07:48;101031.06;;;16.71;77.42
46690;BME280;32423;45.398;10.874;2023-05-19T15:10:38;101035.16;;;16.77;77.75
46690;BME280;32423;45.398;10.874;2023-05-19T15:13:30;101024.44;;;16.72;77.26